sensor_id;sensor_type;location;lat;lon;timestamp;temperature;humidity
31677;DHT22;18385;51.572;6.578;2023-07-29T00:02:22;23.40;62.20
31677;DHT22;18385;51.572;6.578;2023-07-29T00:04:47;23.30;62.30
31677;DHT22;18385;51.572;6.578;2023-07-29T00:07:13;23.30;62.50
31677;DHT22;18385;51.572;6.578;2023-07-29T00:09:39;23.30;62.60
31677;DHT22;18385;51.572;6.578;2023-07-29T00:12:05;23.30;62.70
31677;DHT22;18385;51.572;6.578;2023-07-29T00:14:30;23.30;62.80
31677;DHT22;18385;51.572;6.578;2023-07-29T00:16:56;23.30;63.00
31677;DHT22;18385;51.572;6.578;2023-07-29T00:19:21;23.30;63.00
31677;DHT22;18385;51.572;6.578;2023-07-29T00:21:49;23.40;63.10
31677;DHT22;18385;51.572;6.578;2023-07-29T00:24:14;23.50;63.10
31677;DHT22;18385;51.572;6.578;2023-07-29T00:26:40;23.50;63.00
31677;DHT22;18385;51.572;6.578;2023-07-29T00:29:05;23.60;63.00
31677;DHT22;18385;51.572;6.578;2023-07-29T00:31:31;23.60;63.00
31677;DHT22;18385;51.572;6.578;2023-07-29T00:33:57;23.70;63.00
31677;DHT22;18385;51.572;6.578;2023-07-29T00:36:23;23.70;63.00
31677;DHT22;18385;51.572;6.578;2023-07-29T00:38:50;23.70;63.00
31677;DHT22;18385;51.572;6.578;2023-07-29T00:41:16;23.80;63.00
31677;DHT22;18385;51.572;6.578;2023-07-29T00:43:42;23.80;63.00
31677;DHT22;18385;51.572;6.578;2023-07-29T00:46:08;23.70;63.10
31677;DHT22;18385;51.572;6.578;2023-07-29T00:48:35;23.70;63.10
31677;DHT22;18385;51.572;6.578;2023-07-29T00:51:01;23.70;63.10
31677;DHT22;18385;51.572;6.578;2023-07-29T00:53:27;23.60;63.20
31677;DHT22;18385;51.572;6.578;2023-07-29T00:55:53;23.50;63.40
31677;DHT22;18385;51.572;6.578;2023-07-29T00:58:19;23.60;63.60
31677;DHT22;18385;51.572;6.578;2023-07-29T01:00:45;23.70;63.70
31677;DHT22;18385;51.572;6.578;2023-07-29T01:03:10;23.70;63.70
31677;DHT22;18385;51.572;6.578;2023-07-29T01:05:52;23.70;63.70
31677;DHT22;18385;51.572;6.578;2023-07-29T01:08:33;23.70;63.60
31677;DHT22;18385;51.572;6.578;2023-07-29T01:14:28;23.80;63.30
31677;DHT22;18385;51.572;6.578;2023-07-29T01:17:03;23.70;63.60
31677;DHT22;18385;51.572;6.578;2023-07-29T01:22:20;23.80;63.70
31677;DHT22;18385;51.572;6.578;2023-07-29T01:24:46;23.80;63.70
31677;DHT22;18385;51.572;6.578;2023-07-29T01:27:12;23.80;63.70
31677;DHT22;18385;51.572;6.578;2023-07-29T01:29:39;23.80;63.70
31677;DHT22;18385;51.572;6.578;2023-07-29T01:32:19;23.80;63.70
31677;DHT22;18385;51.572;6.578;2023-07-29T01:34:48;23.90;63.90
31677;DHT22;18385;51.572;6.578;2023-07-29T01:37:19;23.90;64.70
31677;DHT22;18385;51.572;6.578;2023-07-29T01:39:49;23.90;63.90
31677;DHT22;18385;51.572;6.578;2023-07-29T01:42:36;23.90;63.90
31677;DHT22;18385;51.572;6.578;2023-07-29T01:45:02;23.90;63.80
31677;DHT22;18385;51.572;6.578;2023-07-29T01:47:28;23.80;63.80
31677;DHT22;18385;51.572;6.578;2023-07-29T01:49:54;23.90;64.10
31677;DHT22;18385;51.572;6.578;2023-07-29T01:52:20;23.80;63.90
31677;DHT22;18385;51.572;6.578;2023-07-29T01:54:45;23.80;63.90
31677;DHT22;18385;51.572;6.578;2023-07-29T01:57:11;23.80;64.00
31677;DHT22;18385;51.572;6.578;2023-07-29T01:59:37;23.80;64.10
31677;DHT22;18385;51.572;6.578;2023-07-29T02:02:02;23.70;64.10
31677;DHT22;18385;51.572;6.578;2023-07-29T02:04:28;23.70;64.20
31677;DHT22;18385;51.572;6.578;2023-07-29T02:06:54;23.70;64.30
31677;DHT22;18385;51.572;6.578;2023-07-29T02:09:20;23.70;64.30
31677;DHT22;18385;51.572;6.578;2023-07-29T02:11:46;23.70;64.40
31677;DHT22;18385;51.572;6.578;2023-07-29T02:14:11;23.70;64.40
31677;DHT22;18385;51.572;6.578;2023-07-29T02:16:37;23.70;64.30
31677;DHT22;18385;51.572;6.578;2023-07-29T02:19:04;23.70;64.40
31677;DHT22;18385;51.572;6.578;2023-07-29T02:21:30;23.70;64.40
31677;DHT22;18385;51.572;6.578;2023-07-29T02:23:56;23.70;64.40
31677;DHT22;18385;51.572;6.578;2023-07-29T02:26:22;23.60;64.50
31677;DHT22;18385;51.572;6.578;2023-07-29T02:28:48;23.60;64.60
31677;DHT22;18385;51.572;6.578;2023-07-29T02:31:19;23.70;64.70
31677;DHT22;18385;51.572;6.578;2023-07-29T02:33:46;23.70;64.80
31677;DHT22;18385;51.572;6.578;2023-07-29T02:36:12;23.60;64.70
31677;DHT22;18385;51.572;6.578;2023-07-29T02:38:39;23.60;64.80
31677;DHT22;18385;51.572;6.578;2023-07-29T02:41:05;23.60;64.80
31677;DHT22;18385;51.572;6.578;2023-07-29T02:43:30;23.60;64.80
31677;DHT22;18385;51.572;6.578;2023-07-29T02:45:56;23.60;64.90
31677;DHT22;18385;51.572;6.578;2023-07-29T02:48:22;23.60;64.90
31677;DHT22;18385;51.572;6.578;2023-07-29T02:50:47;23.60;65.00
31677;DHT22;18385;51.572;6.578;2023-07-29T02:53:13;23.60;65.00
31677;DHT22;18385;51.572;6.578;2023-07-29T02:55:42;23.60;65.00
31677;DHT22;18385;51.572;6.578;2023-07-29T02:58:08;23.60;65.00
31677;DHT22;18385;51.572;6.578;2023-07-29T03:00:34;23.60;65.00
31677;DHT22;18385;51.572;6.578;2023-07-29T03:02:59;23.60;65.00
31677;DHT22;18385;51.572;6.578;2023-07-29T03:05:28;23.60;65.00
31677;DHT22;18385;51.572;6.578;2023-07-29T03:07:54;23.60;65.10
31677;DHT22;18385;51.572;6.578;2023-07-29T03:10:20;23.60;65.10
31677;DHT22;18385;51.572;6.578;2023-07-29T03:12:46;23.50;65.10
31677;DHT22;18385;51.572;6.578;2023-07-29T03:15:12;23.50;65.30
31677;DHT22;18385;51.572;6.578;2023-07-29T03:17:38;23.50;65.30
31677;DHT22;18385;51.572;6.578;2023-07-29T03:20:04;23.50;65.40
31677;DHT22;18385;51.572;6.578;2023-07-29T03:22:30;23.50;65.50
31677;DHT22;18385;51.572;6.578;2023-07-29T03:24:56;23.40;65.50
31677;DHT22;18385;51.572;6.578;2023-07-29T03:27:21;23.40;65.60
31677;DHT22;18385;51.572;6.578;2023-07-29T03:29:47;23.40;65.70
31677;DHT22;18385;51.572;6.578;2023-07-29T03:32:13;23.40;65.70
31677;DHT22;18385;51.572;6.578;2023-07-29T03:34:38;23.40;65.70
31677;DHT22;18385;51.572;6.578;2023-07-29T03:37:05;23.40;65.70
31677;DHT22;18385;51.572;6.578;2023-07-29T03:39:32;23.30;65.60
31677;DHT22;18385;51.572;6.578;2023-07-29T03:41:58;23.20;65.60
31677;DHT22;18385;51.572;6.578;2023-07-29T03:44:24;23.20;65.80
31677;DHT22;18385;51.572;6.578;2023-07-29T03:46:49;23.10;65.90
31677;DHT22;18385;51.572;6.578;2023-07-29T03:49:15;23.10;66.00
31677;DHT22;18385;51.572;6.578;2023-07-29T03:51:41;23.00;66.20
31677;DHT22;18385;51.572;6.578;2023-07-29T03:54:06;23.00;66.20
31677;DHT22;18385;51.572;6.578;2023-07-29T03:56:32;22.90;66.20
31677;DHT22;18385;51.572;6.578;2023-07-29T03:59:07;22.90;66.40
31677;DHT22;18385;51.572;6.578;2023-07-29T04:01:33;22.90;66.40
31677;DHT22;18385;51.572;6.578;2023-07-29T04:03:59;22.80;66.30
31677;DHT22;18385;51.572;6.578;2023-07-29T04:06:25;22.70;66.40
31677;DHT22;18385;51.572;6.578;2023-07-29T04:08:51;22.70;66.40
31677;DHT22;18385;51.572;6.578;2023-07-29T04:11:17;22.60;66.40
31677;DHT22;18385;51.572;6.578;2023-07-29T04:13:43;22.60;66.50
31677;DHT22;18385;51.572;6.578;2023-07-29T04:16:08;22.60;67.30
31677;DHT22;18385;51.572;6.578;2023-07-29T04:18:34;22.60;66.50
31677;DHT22;18385;51.572;6.578;2023-07-29T04:21:00;22.60;66.50
31677;DHT22;18385;51.572;6.578;2023-07-29T04:23:26;22.50;66.40
31677;DHT22;18385;51.572;6.578;2023-07-29T04:25:51;22.50;66.40
31677;DHT22;18385;51.572;6.578;2023-07-29T04:28:17;22.40;66.30
31677;DHT22;18385;51.572;6.578;2023-07-29T04:30:43;22.30;66.40
31677;DHT22;18385;51.572;6.578;2023-07-29T04:33:08;22.40;66.40
31677;DHT22;18385;51.572;6.578;2023-07-29T04:35:36;22.30;66.40
31677;DHT22;18385;51.572;6.578;2023-07-29T04:38:02;22.30;66.30
31677;DHT22;18385;51.572;6.578;2023-07-29T04:40:28;22.20;66.30
31677;DHT22;18385;51.572;6.578;2023-07-29T04:42:53;22.20;66.40
31677;DHT22;18385;51.572;6.578;2023-07-29T04:45:19;22.20;66.20
31677;DHT22;18385;51.572;6.578;2023-07-29T04:47:44;22.30;66.30
31677;DHT22;18385;51.572;6.578;2023-07-29T04:50:10;22.30;66.10
31677;DHT22;18385;51.572;6.578;2023-07-29T04:52:36;22.30;66.00
31677;DHT22;18385;51.572;6.578;2023-07-29T04:55:02;22.30;65.90
31677;DHT22;18385;51.572;6.578;2023-07-29T04:57:28;22.30;65.90
31677;DHT22;18385;51.572;6.578;2023-07-29T04:59:54;22.30;65.90
31677;DHT22;18385;51.572;6.578;2023-07-29T05:02:20;22.40;65.90
31677;DHT22;18385;51.572;6.578;2023-07-29T05:04:46;22.40;65.70
31677;DHT22;18385;51.572;6.578;2023-07-29T05:07:12;22.50;65.60
31677;DHT22;18385;51.572;6.578;2023-07-29T05:09:37;22.50;65.30
31677;DHT22;18385;51.572;6.578;2023-07-29T05:12:03;22.50;65.20
31677;DHT22;18385;51.572;6.578;2023-07-29T05:14:29;22.50;65.20
31677;DHT22;18385;51.572;6.578;2023-07-29T05:16:55;22.50;65.20
31677;DHT22;18385;51.572;6.578;2023-07-29T05:19:21;22.50;65.10
31677;DHT22;18385;51.572;6.578;2023-07-29T05:21:46;22.50;65.10
31677;DHT22;18385;51.572;6.578;2023-07-29T05:24:13;22.40;65.00
31677;DHT22;18385;51.572;6.578;2023-07-29T05:26:38;22.40;65.00
31677;DHT22;18385;51.572;6.578;2023-07-29T05:29:04;22.30;65.00
31677;DHT22;18385;51.572;6.578;2023-07-29T05:31:31;22.40;65.00
31677;DHT22;18385;51.572;6.578;2023-07-29T05:33:56;22.40;65.00
31677;DHT22;18385;51.572;6.578;2023-07-29T05:36:22;22.40;64.90
31677;DHT22;18385;51.572;6.578;2023-07-29T05:38:48;22.40;64.80
31677;DHT22;18385;51.572;6.578;2023-07-29T05:41:13;22.40;64.70
31677;DHT22;18385;51.572;6.578;2023-07-29T05:43:39;22.40;64.50
31677;DHT22;18385;51.572;6.578;2023-07-29T05:46:05;22.40;64.50
31677;DHT22;18385;51.572;6.578;2023-07-29T05:48:31;22.40;64.40
31677;DHT22;18385;51.572;6.578;2023-07-29T05:50:57;22.50;64.40
31677;DHT22;18385;51.572;6.578;2023-07-29T05:53:23;22.50;64.30
31677;DHT22;18385;51.572;6.578;2023-07-29T05:55:48;22.60;64.10
31677;DHT22;18385;51.572;6.578;2023-07-29T05:58:15;22.60;64.00
31677;DHT22;18385;51.572;6.578;2023-07-29T06:00:41;22.60;63.90
31677;DHT22;18385;51.572;6.578;2023-07-29T06:03:06;22.60;63.90
31677;DHT22;18385;51.572;6.578;2023-07-29T06:05:32;22.60;63.70
31677;DHT22;18385;51.572;6.578;2023-07-29T06:07:57;22.70;63.80
31677;DHT22;18385;51.572;6.578;2023-07-29T06:10:23;22.70;63.70
31677;DHT22;18385;51.572;6.578;2023-07-29T06:12:49;22.80;63.60
31677;DHT22;18385;51.572;6.578;2023-07-29T06:15:15;22.80;63.60
31677;DHT22;18385;51.572;6.578;2023-07-29T06:17:41;22.90;63.30
31677;DHT22;18385;51.572;6.578;2023-07-29T06:20:07;22.90;63.10
31677;DHT22;18385;51.572;6.578;2023-07-29T06:22:32;22.80;62.90
31677;DHT22;18385;51.572;6.578;2023-07-29T06:24:58;22.80;62.90
31677;DHT22;18385;51.572;6.578;2023-07-29T06:27:25;22.80;63.00
31677;DHT22;18385;51.572;6.578;2023-07-29T06:29:50;22.80;63.00
31677;DHT22;18385;51.572;6.578;2023-07-29T06:32:16;22.90;62.90
31677;DHT22;18385;51.572;6.578;2023-07-29T06:34:42;22.90;62.70
31677;DHT22;18385;51.572;6.578;2023-07-29T06:37:07;22.70;62.40
31677;DHT22;18385;51.572;6.578;2023-07-29T06:39:33;22.70;62.50
31677;DHT22;18385;51.572;6.578;2023-07-29T06:41:59;22.70;62.50
31677;DHT22;18385;51.572;6.578;2023-07-29T06:44:24;22.80;62.40
31677;DHT22;18385;51.572;6.578;2023-07-29T06:46:50;22.80;62.30
31677;DHT22;18385;51.572;6.578;2023-07-29T06:49:16;22.90;62.30
31677;DHT22;18385;51.572;6.578;2023-07-29T06:51:41;23.00;62.20
31677;DHT22;18385;51.572;6.578;2023-07-29T06:54:07;23.20;62.00
31677;DHT22;18385;51.572;6.578;2023-07-29T06:56:32;23.40;61.50
31677;DHT22;18385;51.572;6.578;2023-07-29T06:58:58;23.50;61.30
31677;DHT22;18385;51.572;6.578;2023-07-29T07:01:24;23.50;60.90
31677;DHT22;18385;51.572;6.578;2023-07-29T07:03:49;23.50;60.80
31677;DHT22;18385;51.572;6.578;2023-07-29T07:06:15;23.40;60.60
31677;DHT22;18385;51.572;6.578;2023-07-29T07:08:41;23.30;60.70
31677;DHT22;18385;51.572;6.578;2023-07-29T07:11:07;23.30;60.70
31677;DHT22;18385;51.572;6.578;2023-07-29T07:13:33;23.30;60.70
31677;DHT22;18385;51.572;6.578;2023-07-29T07:15:59;23.40;61.40
31677;DHT22;18385;51.572;6.578;2023-07-29T07:18:24;23.50;60.60
31677;DHT22;18385;51.572;6.578;2023-07-29T07:20:50;23.60;60.30
31677;DHT22;18385;51.572;6.578;2023-07-29T07:23:17;23.60;60.10
31677;DHT22;18385;51.572;6.578;2023-07-29T07:25:42;23.50;59.90
31677;DHT22;18385;51.572;6.578;2023-07-29T07:28:09;23.60;60.20
31677;DHT22;18385;51.572;6.578;2023-07-29T07:30:34;23.70;60.00
31677;DHT22;18385;51.572;6.578;2023-07-29T07:33:01;23.80;59.80
31677;DHT22;18385;51.572;6.578;2023-07-29T07:35:27;23.80;59.70
31677;DHT22;18385;51.572;6.578;2023-07-29T07:37:52;24.00;59.70
31677;DHT22;18385;51.572;6.578;2023-07-29T07:40:18;24.10;59.50
31677;DHT22;18385;51.572;6.578;2023-07-29T07:42:43;24.30;59.30
31677;DHT22;18385;51.572;6.578;2023-07-29T07:45:09;24.50;59.10
31677;DHT22;18385;51.572;6.578;2023-07-29T07:47:35;24.50;58.60
31677;DHT22;18385;51.572;6.578;2023-07-29T07:50:00;24.40;58.50
31677;DHT22;18385;51.572;6.578;2023-07-29T07:52:26;24.30;58.40
31677;DHT22;18385;51.572;6.578;2023-07-29T07:54:53;24.20;58.40
31677;DHT22;18385;51.572;6.578;2023-07-29T07:57:20;24.10;58.40
31677;DHT22;18385;51.572;6.578;2023-07-29T07:59:46;24.10;58.50
31677;DHT22;18385;51.572;6.578;2023-07-29T08:02:12;24.00;58.50
31677;DHT22;18385;51.572;6.578;2023-07-29T08:04:37;24.00;58.70
31677;DHT22;18385;51.572;6.578;2023-07-29T08:07:03;24.00;58.80
31677;DHT22;18385;51.572;6.578;2023-07-29T08:09:29;24.00;58.60
31677;DHT22;18385;51.572;6.578;2023-07-29T08:11:54;24.00;58.50
31677;DHT22;18385;51.572;6.578;2023-07-29T08:14:20;24.00;58.60
31677;DHT22;18385;51.572;6.578;2023-07-29T08:16:46;24.10;58.50
31677;DHT22;18385;51.572;6.578;2023-07-29T08:19:11;24.10;58.30
31677;DHT22;18385;51.572;6.578;2023-07-29T08:21:37;24.20;58.30
31677;DHT22;18385;51.572;6.578;2023-07-29T08:24:03;24.30;58.20
31677;DHT22;18385;51.572;6.578;2023-07-29T08:26:29;24.60;58.30
31677;DHT22;18385;51.572;6.578;2023-07-29T08:28:54;24.80;57.90
31677;DHT22;18385;51.572;6.578;2023-07-29T08:31:20;25.20;57.80
31677;DHT22;18385;51.572;6.578;2023-07-29T08:33:45;25.50;57.40
31677;DHT22;18385;51.572;6.578;2023-07-29T08:36:11;25.50;56.70
31677;DHT22;18385;51.572;6.578;2023-07-29T08:38:37;25.70;56.80
31677;DHT22;18385;51.572;6.578;2023-07-29T08:43:39;25.90;56.20
31677;DHT22;18385;51.572;6.578;2023-07-29T08:46:08;25.90;56.00
31677;DHT22;18385;51.572;6.578;2023-07-29T08:48:41;25.90;56.10
31677;DHT22;18385;51.572;6.578;2023-07-29T08:51:09;26.10;56.00
31677;DHT22;18385;51.572;6.578;2023-07-29T08:53:35;26.30;55.80
31677;DHT22;18385;51.572;6.578;2023-07-29T08:56:01;26.30;55.10
31677;DHT22;18385;51.572;6.578;2023-07-29T08:58:27;26.10;55.00
31677;DHT22;18385;51.572;6.578;2023-07-29T09:00:54;25.90;55.20
31677;DHT22;18385;51.572;6.578;2023-07-29T09:03:20;25.80;55.40
31677;DHT22;18385;51.572;6.578;2023-07-29T09:05:46;25.70;55.50
31677;DHT22;18385;51.572;6.578;2023-07-29T09:08:13;25.90;55.70
31677;DHT22;18385;51.572;6.578;2023-07-29T09:10:39;26.00;55.40
31677;DHT22;18385;51.572;6.578;2023-07-29T09:13:05;25.90;55.00
31677;DHT22;18385;51.572;6.578;2023-07-29T09:15:33;25.80;55.10
31677;DHT22;18385;51.572;6.578;2023-07-29T09:17:59;25.90;55.20
31677;DHT22;18385;51.572;6.578;2023-07-29T09:20:33;25.90;55.10
31677;DHT22;18385;51.572;6.578;2023-07-29T09:22:59;25.80;54.90
31677;DHT22;18385;51.572;6.578;2023-07-29T09:25:27;25.80;55.60
31677;DHT22;18385;51.572;6.578;2023-07-29T09:27:53;25.90;55.00
31677;DHT22;18385;51.572;6.578;2023-07-29T09:30:23;25.90;54.60
31677;DHT22;18385;51.572;6.578;2023-07-29T09:32:58;26.00;54.70
31677;DHT22;18385;51.572;6.578;2023-07-29T09:35:27;26.00;54.10
31677;DHT22;18385;51.572;6.578;2023-07-29T09:37:53;26.10;54.40
31677;DHT22;18385;51.572;6.578;2023-07-29T09:40:19;26.30;54.20
31677;DHT22;18385;51.572;6.578;2023-07-29T09:42:51;26.30;54.10
31677;DHT22;18385;51.572;6.578;2023-07-29T09:45:24;26.30;54.10
31677;DHT22;18385;51.572;6.578;2023-07-29T09:47:51;26.50;54.00
31677;DHT22;18385;51.572;6.578;2023-07-29T09:50:17;26.60;53.90
31677;DHT22;18385;51.572;6.578;2023-07-29T09:52:43;26.60;53.50
31677;DHT22;18385;51.572;6.578;2023-07-29T09:55:13;26.70;53.70
31677;DHT22;18385;51.572;6.578;2023-07-29T09:57:41;26.80;53.00
31677;DHT22;18385;51.572;6.578;2023-07-29T10:00:10;26.80;53.30
31677;DHT22;18385;51.572;6.578;2023-07-29T10:02:42;27.00;53.10
31677;DHT22;18385;51.572;6.578;2023-07-29T10:05:09;27.10;52.80
31677;DHT22;18385;51.572;6.578;2023-07-29T10:07:39;27.20;52.50
31677;DHT22;18385;51.572;6.578;2023-07-29T10:10:06;27.20;52.20
31677;DHT22;18385;51.572;6.578;2023-07-29T10:12:33;27.00;52.00
31677;DHT22;18385;51.572;6.578;2023-07-29T10:15:01;27.00;52.30
31677;DHT22;18385;51.572;6.578;2023-07-29T10:17:27;26.80;52.00
31677;DHT22;18385;51.572;6.578;2023-07-29T10:19:54;26.60;52.00
31677;DHT22;18385;51.572;6.578;2023-07-29T10:22:21;26.40;52.10
31677;DHT22;18385;51.572;6.578;2023-07-29T10:24:51;26.20;52.10
31677;DHT22;18385;51.572;6.578;2023-07-29T10:27:19;26.00;52.40
31677;DHT22;18385;51.572;6.578;2023-07-29T10:29:45;26.00;52.80
31677;DHT22;18385;51.572;6.578;2023-07-29T10:32:11;26.20;53.10
31677;DHT22;18385;51.572;6.578;2023-07-29T10:34:38;26.40;52.70
31677;DHT22;18385;51.572;6.578;2023-07-29T10:37:04;26.60;52.60
31677;DHT22;18385;51.572;6.578;2023-07-29T10:39:40;26.80;51.90
31677;DHT22;18385;51.572;6.578;2023-07-29T10:42:16;26.80;51.70
31677;DHT22;18385;51.572;6.578;2023-07-29T10:47:24;27.10;51.50
31677;DHT22;18385;51.572;6.578;2023-07-29T10:49:55;27.20;51.40
31677;DHT22;18385;51.572;6.578;2023-07-29T10:52:37;27.50;51.30
31677;DHT22;18385;51.572;6.578;2023-07-29T10:55:27;27.70;50.40
31677;DHT22;18385;51.572;6.578;2023-07-29T10:58:13;27.60;50.40
31677;DHT22;18385;51.572;6.578;2023-07-29T11:00:44;27.80;50.40
31677;DHT22;18385;51.572;6.578;2023-07-29T11:03:12;27.80;50.10
31677;DHT22;18385;51.572;6.578;2023-07-29T11:05:52;27.70;49.90
31677;DHT22;18385;51.572;6.578;2023-07-29T11:08:29;27.50;49.80
31677;DHT22;18385;51.572;6.578;2023-07-29T11:11:13;27.30;49.60
31677;DHT22;18385;51.572;6.578;2023-07-29T11:13:39;26.90;50.00
31677;DHT22;18385;51.572;6.578;2023-07-29T11:16:05;26.80;50.30
31677;DHT22;18385;51.572;6.578;2023-07-29T11:18:32;26.60;50.30
31677;DHT22;18385;51.572;6.578;2023-07-29T11:21:00;26.60;50.50
31677;DHT22;18385;51.572;6.578;2023-07-29T11:23:33;26.70;50.60
31677;DHT22;18385;51.572;6.578;2023-07-29T11:25:59;26.80;50.80
31677;DHT22;18385;51.572;6.578;2023-07-29T11:28:26;27.10;51.10
31677;DHT22;18385;51.572;6.578;2023-07-29T11:30:52;27.60;50.60
31677;DHT22;18385;51.572;6.578;2023-07-29T11:33:26;27.80;50.00
31677;DHT22;18385;51.572;6.578;2023-07-29T11:35:54;28.00;49.90
31677;DHT22;18385;51.572;6.578;2023-07-29T11:38:21;28.30;49.70
31677;DHT22;18385;51.572;6.578;2023-07-29T11:40:59;28.60;49.70
31677;DHT22;18385;51.572;6.578;2023-07-29T11:43:25;28.80;49.10
31677;DHT22;18385;51.572;6.578;2023-07-29T11:45:52;28.90;48.40
31677;DHT22;18385;51.572;6.578;2023-07-29T11:48:18;28.90;48.20
31677;DHT22;18385;51.572;6.578;2023-07-29T11:50:44;28.80;48.80
31677;DHT22;18385;51.572;6.578;2023-07-29T11:53:11;28.60;48.10
31677;DHT22;18385;51.572;6.578;2023-07-29T11:55:36;28.50;48.30
31677;DHT22;18385;51.572;6.578;2023-07-29T11:58:02;28.30;48.50
31677;DHT22;18385;51.572;6.578;2023-07-29T12:00:28;28.30;48.60
31677;DHT22;18385;51.572;6.578;2023-07-29T12:02:54;28.30;48.60
31677;DHT22;18385;51.572;6.578;2023-07-29T12:05:22;28.70;49.00
31677;DHT22;18385;51.572;6.578;2023-07-29T12:07:49;29.10;47.90
31677;DHT22;18385;51.572;6.578;2023-07-29T12:10:14;29.30;47.70
31677;DHT22;18385;51.572;6.578;2023-07-29T12:12:50;29.30;46.90
31677;DHT22;18385;51.572;6.578;2023-07-29T12:15:26;29.10;46.80
31677;DHT22;18385;51.572;6.578;2023-07-29T12:17:59;29.00;47.40
31677;DHT22;18385;51.572;6.578;2023-07-29T12:20:26;28.90;47.40
31677;DHT22;18385;51.572;6.578;2023-07-29T12:22:56;28.90;47.70
31677;DHT22;18385;51.572;6.578;2023-07-29T12:25:23;29.00;47.70
31677;DHT22;18385;51.572;6.578;2023-07-29T12:27:49;29.10;47.60
31677;DHT22;18385;51.572;6.578;2023-07-29T12:30:14;29.30;47.40
31677;DHT22;18385;51.572;6.578;2023-07-29T12:32:44;29.70;47.50
31677;DHT22;18385;51.572;6.578;2023-07-29T12:35:10;30.10;46.70
31677;DHT22;18385;51.572;6.578;2023-07-29T12:37:36;30.20;46.70
31677;DHT22;18385;51.572;6.578;2023-07-29T12:40:04;30.10;46.40
31677;DHT22;18385;51.572;6.578;2023-07-29T12:42:30;29.90;46.00
31677;DHT22;18385;51.572;6.578;2023-07-29T12:44:55;29.70;46.00
31677;DHT22;18385;51.572;6.578;2023-07-29T12:47:21;29.20;45.90
31677;DHT22;18385;51.572;6.578;2023-07-29T12:49:47;28.80;46.30
31677;DHT22;18385;51.572;6.578;2023-07-29T12:52:12;28.50;46.80
31677;DHT22;18385;51.572;6.578;2023-07-29T12:54:38;28.30;47.30
31677;DHT22;18385;51.572;6.578;2023-07-29T12:57:06;28.10;47.50
31677;DHT22;18385;51.572;6.578;2023-07-29T12:59:31;27.90;47.50
31677;DHT22;18385;51.572;6.578;2023-07-29T13:01:57;27.70;47.70
31677;DHT22;18385;51.572;6.578;2023-07-29T13:04:23;27.60;47.90
31677;DHT22;18385;51.572;6.578;2023-07-29T13:06:48;27.50;47.90
31677;DHT22;18385;51.572;6.578;2023-07-29T13:09:14;27.40;48.10
31677;DHT22;18385;51.572;6.578;2023-07-29T13:11:39;27.20;48.20
31677;DHT22;18385;51.572;6.578;2023-07-29T13:14:05;27.20;48.40
31677;DHT22;18385;51.572;6.578;2023-07-29T13:16:31;27.10;48.70
31677;DHT22;18385;51.572;6.578;2023-07-29T13:18:57;26.90;48.50
31677;DHT22;18385;51.572;6.578;2023-07-29T13:21:23;26.90;48.60
31677;DHT22;18385;51.572;6.578;2023-07-29T13:23:49;26.70;48.60
31677;DHT22;18385;51.572;6.578;2023-07-29T13:26:14;26.60;48.60
31677;DHT22;18385;51.572;6.578;2023-07-29T13:28:40;26.30;48.60
31677;DHT22;18385;51.572;6.578;2023-07-29T13:31:06;25.30;47.60
31677;DHT22;18385;51.572;6.578;2023-07-29T13:33:31;23.60;48.20
31677;DHT22;18385;51.572;6.578;2023-07-29T13:36:00;22.20;49.80
31677;DHT22;18385;51.572;6.578;2023-07-29T13:38:27;21.40;51.20
31677;DHT22;18385;51.572;6.578;2023-07-29T13:40:53;21.00;51.90
31677;DHT22;18385;51.572;6.578;2023-07-29T13:43:18;20.90;52.20
31677;DHT22;18385;51.572;6.578;2023-07-29T13:45:44;20.70;52.20
31677;DHT22;18385;51.572;6.578;2023-07-29T13:48:10;20.60;52.50
31677;DHT22;18385;51.572;6.578;2023-07-29T13:50:35;20.50;52.60
31677;DHT22;18385;51.572;6.578;2023-07-29T13:53:01;20.50;52.70
31677;DHT22;18385;51.572;6.578;2023-07-29T13:55:26;20.50;52.70
31677;DHT22;18385;51.572;6.578;2023-07-29T13:57:53;20.40;52.60
31677;DHT22;18385;51.572;6.578;2023-07-29T14:00:19;20.40;52.70
31677;DHT22;18385;51.572;6.578;2023-07-29T14:02:45;20.40;52.70
31677;DHT22;18385;51.572;6.578;2023-07-29T14:05:11;20.50;52.80
31677;DHT22;18385;51.572;6.578;2023-07-29T14:07:37;20.50;52.80
31677;DHT22;18385;51.572;6.578;2023-07-29T14:10:03;20.50;53.00
31677;DHT22;18385;51.572;6.578;2023-07-29T14:12:29;20.80;53.10
31677;DHT22;18385;51.572;6.578;2023-07-29T14:14:54;21.20;53.50
31677;DHT22;18385;51.572;6.578;2023-07-29T14:17:20;22.20;54.20
31677;DHT22;18385;51.572;6.578;2023-07-29T14:19:46;23.40;53.70
31677;DHT22;18385;51.572;6.578;2023-07-29T14:22:11;24.30;52.30
31677;DHT22;18385;51.572;6.578;2023-07-29T14:24:37;25.30;53.00
31677;DHT22;18385;51.572;6.578;2023-07-29T14:27:03;27.00;52.50
31677;DHT22;18385;51.572;6.578;2023-07-29T14:29:29;28.70;51.40
31677;DHT22;18385;51.572;6.578;2023-07-29T14:31:54;29.90;49.80
31677;DHT22;18385;51.572;6.578;2023-07-29T14:34:20;30.90;48.90
31677;DHT22;18385;51.572;6.578;2023-07-29T14:36:45;31.70;47.60
31677;DHT22;18385;51.572;6.578;2023-07-29T14:39:11;32.30;46.70
31677;DHT22;18385;51.572;6.578;2023-07-29T14:41:37;32.40;45.40
31677;DHT22;18385;51.572;6.578;2023-07-29T14:44:02;32.40;45.70
31677;DHT22;18385;51.572;6.578;2023-07-29T14:46:28;32.80;46.60
31677;DHT22;18385;51.572;6.578;2023-07-29T14:48:53;33.40;46.70
31677;DHT22;18385;51.572;6.578;2023-07-29T14:51:19;33.80;46.10
31677;DHT22;18385;51.572;6.578;2023-07-29T14:53:45;34.00;45.50
31677;DHT22;18385;51.572;6.578;2023-07-29T14:56:13;33.90;45.00
31677;DHT22;18385;51.572;6.578;2023-07-29T14:58:40;34.10;45.80
31677;DHT22;18385;51.572;6.578;2023-07-29T15:01:06;34.80;45.90
31677;DHT22;18385;51.572;6.578;2023-07-29T15:03:31;35.10;45.20
31677;DHT22;18385;51.572;6.578;2023-07-29T15:05:57;35.40;45.30
31677;DHT22;18385;51.572;6.578;2023-07-29T15:08:25;36.00;45.10
31677;DHT22;18385;51.572;6.578;2023-07-29T15:10:50;35.70;44.30
31677;DHT22;18385;51.572;6.578;2023-07-29T15:13:16;35.40;44.60
31677;DHT22;18385;51.572;6.578;2023-07-29T15:15:44;34.60;44.00
31677;DHT22;18385;51.572;6.578;2023-07-29T15:18:10;32.80;44.30
31677;DHT22;18385;51.572;6.578;2023-07-29T15:20:36;31.20;45.60
31677;DHT22;18385;51.572;6.578;2023-07-29T15:23:03;30.00;47.30
31677;DHT22;18385;51.572;6.578;2023-07-29T15:25:29;29.10;48.20
31677;DHT22;18385;51.572;6.578;2023-07-29T15:27:54;28.40;48.80
31677;DHT22;18385;51.572;6.578;2023-07-29T15:30:20;28.10;50.10
31677;DHT22;18385;51.572;6.578;2023-07-29T15:32:45;28.40;51.00
31677;DHT22;18385;51.572;6.578;2023-07-29T15:35:11;29.90;51.90
31677;DHT22;18385;51.572;6.578;2023-07-29T15:37:37;31.70;50.20
31677;DHT22;18385;51.572;6.578;2023-07-29T15:40:04;33.30;48.80